createdAt,value
2023-03-02T00:00:32.438Z,-2.71
2023-03-02T00:05:35.454Z,-2.79
2023-03-02T00:10:38.240Z,-2.70
2023-03-02T00:15:40.198Z,-2.82
2023-03-02T00:20:41.942Z,-2.69
2023-03-02T00:25:43.661Z,-2.78
2023-03-02T00:30:45.445Z,-3.22
2023-03-02T00:35:47.218Z,-3.36
2023-03-02T00:40:49.447Z,-2.85
2023-03-02T00:45:51.092Z,-2.95
2023-03-02T00:50:52.782Z,-3.26
2023-03-02T00:55:55.269Z,-3.46
2023-03-02T01:00:59.171Z,-3.27
2023-03-02T01:06:02.417Z,-3.28
2023-03-02T01:11:04.338Z,-3.12
2023-03-02T01:16:06.345Z,-3.53
2023-03-02T01:21:11.973Z,-3.66
2023-03-02T01:26:13.814Z,-3.40
2023-03-02T01:31:15.509Z,-3.31
2023-03-02T01:36:17.774Z,-3.11
2023-03-02T01:47:54.009Z,-3.44
2023-03-02T01:52:56.693Z,-3.67
2023-03-02T01:58:01.697Z,-3.41
2023-03-02T02:03:09.263Z,-3.48
2023-03-02T02:08:11.197Z,-3.84
2023-03-02T02:13:13.721Z,-3.51
2023-03-02T02:18:15.333Z,-3.68
2023-03-02T02:23:34.971Z,-3.92
2023-03-02T02:28:44.765Z,-4.05
2023-03-02T02:33:55.181Z,-3.97
2023-03-02T02:38:57.146Z,-3.94
2023-03-02T02:43:59.292Z,-3.42
2023-03-02T02:49:03.051Z,-3.57
2023-03-02T02:54:04.877Z,-3.73
2023-03-02T02:59:23.760Z,-3.59
2023-03-02T03:04:29.981Z,-3.94
2023-03-02T03:09:33.261Z,-4.11
2023-03-02T03:14:39.389Z,-4.20
2023-03-02T03:19:44.681Z,-3.75
2023-03-02T03:24:46.804Z,-4.00
2023-03-02T03:29:50.339Z,-3.81
2023-03-02T03:34:54.068Z,-3.91
2023-03-02T03:40:09.793Z,-3.70
2023-03-02T03:45:13.811Z,-4.18
2023-03-02T03:50:18.364Z,-4.41
2023-03-02T03:55:20.163Z,-4.35
2023-03-02T04:00:24.244Z,-4.35
2023-03-02T04:05:34.619Z,-3.94
2023-03-02T04:10:37.852Z,-4.07
2023-03-02T04:15:41.908Z,-4.41
2023-03-02T04:20:43.855Z,-4.30
2023-03-02T04:25:45.770Z,-4.09
2023-03-02T04:30:52.284Z,-4.01
2023-03-02T04:35:54.654Z,-4.13
2023-03-02T04:40:57.656Z,-4.30
2023-03-02T04:45:59.852Z,-4.32
2023-03-02T04:51:01.601Z,-4.67
2023-03-02T04:56:03.516Z,-4.89
2023-03-02T05:01:05.289Z,-4.87
2023-03-02T05:06:07.916Z,-4.90
2023-03-02T05:11:15.853Z,-4.63
2023-03-02T05:16:18.077Z,-4.42
2023-03-02T05:21:19.872Z,-4.61
2023-03-02T05:26:21.604Z,-4.73
2023-03-02T05:31:43.555Z,-4.85
2023-03-02T05:36:46.278Z,-4.51
2023-03-02T05:41:48.601Z,-4.59
2023-03-02T05:46:50.302Z,-4.74
2023-03-02T05:51:51.964Z,-5.02
2023-03-02T05:56:53.670Z,-5.08
2023-03-02T06:01:58.828Z,-5.10
2023-03-02T06:07:00.667Z,-4.36
2023-03-02T06:12:02.306Z,-4.22
2023-03-02T06:17:04.165Z,-4.43
2023-03-02T06:22:05.858Z,-4.16
2023-03-02T06:27:07.516Z,-3.54
2023-03-02T06:32:10.539Z,-3.18
2023-03-02T06:37:12.333Z,-1.83
2023-03-02T06:42:14.112Z,-0.40
2023-03-02T06:47:15.798Z,0.31
2023-03-02T06:52:17.672Z,0.81
2023-03-02T06:57:19.331Z,1.68
2023-03-02T07:02:20.980Z,1.19
2023-03-02T07:07:22.635Z,1.00
2023-03-02T07:12:24.800Z,0.80
2023-03-02T07:17:26.687Z,-0.83
2023-03-02T07:22:28.313Z,-1.20
2023-03-02T07:27:30.106Z,-0.88
2023-03-02T07:32:31.845Z,-1.36
2023-03-02T07:37:33.576Z,-1.29
2023-03-02T07:42:35.208Z,-0.78
2023-03-02T07:47:37.983Z,-1.21
2023-03-02T07:52:39.679Z,-0.87
2023-03-02T07:57:41.448Z,-0.13
2023-03-02T08:02:43.267Z,-0.13
2023-03-02T08:07:46.695Z,-0.53
2023-03-02T08:12:48.391Z,-1.02
2023-03-02T08:17:50.061Z,-0.65
2023-03-02T08:22:51.935Z,0.08
2023-03-02T08:27:53.718Z,0.39
2023-03-02T08:32:55.421Z,0.39
2023-03-02T08:37:59.675Z,0.64
2023-03-02T08:43:01.385Z,0.90
2023-03-02T08:48:03.222Z,1.35
2023-03-02T08:53:04.894Z,1.28
2023-03-02T08:58:06.599Z,1.11
2023-03-02T09:03:08.253Z,1.50
2023-03-02T09:08:10.525Z,1.84
2023-03-02T09:13:12.177Z,1.86
2023-03-02T09:18:13.834Z,1.97
2023-03-02T09:23:24.548Z,1.85
2023-03-02T09:28:26.294Z,1.91
2023-03-02T09:33:28.733Z,1.86
2023-03-02T09:38:30.369Z,2.34
2023-03-02T09:43:50.072Z,2.65
2023-03-02T09:49:25.974Z,2.35
2023-03-02T09:54:28.908Z,2.32
2023-03-02T09:59:39.426Z,2.81
2023-03-02T10:04:50.203Z,3.07
2023-03-02T10:09:52.129Z,2.82
2023-03-02T10:15:04.182Z,3.27
2023-03-02T10:20:17.025Z,3.98
2023-03-02T10:25:50.642Z,4.47
2023-03-02T10:31:05.442Z,5.11
2023-03-02T10:36:21.397Z,5.95
2023-03-02T10:41:29.083Z,6.35
2023-03-02T10:46:46.269Z,6.47
2023-03-02T10:51:58.124Z,7.05
2023-03-02T10:57:03.718Z,7.71
2023-03-02T11:02:23.239Z,8.35
2023-03-02T11:07:28.499Z,8.41
2023-03-02T11:12:31.237Z,8.44
2023-03-02T11:17:38.507Z,9.12
2023-03-02T11:23:00.687Z,8.70
2023-03-02T11:28:17.238Z,9.82
2023-03-02T11:33:34.696Z,9.54
2023-03-02T11:38:53.438Z,10.05
2023-03-02T11:43:58.277Z,10.29
2023-03-02T11:49:05.392Z,9.88
2023-03-02T11:54:44.279Z,11.12
2023-03-02T11:59:46.293Z,10.54
2023-03-02T12:04:48.867Z,10.23
2023-03-02T12:10:08.128Z,10.13
2023-03-02T12:15:33.952Z,10.43
2023-03-02T12:20:37.411Z,10.14
2023-03-02T12:25:51.139Z,9.45
2023-03-02T12:31:10.998Z,9.32
2023-03-02T12:36:17.680Z,8.77
2023-03-02T12:41:41.553Z,8.55
2023-03-02T12:46:48.823Z,8.22
2023-03-02T12:51:52.860Z,8.04
2023-03-02T12:57:08.794Z,7.75
2023-03-02T13:02:16.252Z,7.75
2023-03-02T13:07:22.155Z,7.68
2023-03-02T13:12:26.882Z,7.42
2023-03-02T13:17:33.056Z,7.51
2023-03-02T13:22:34.849Z,7.55
2023-03-02T13:27:36.590Z,7.43
2023-03-02T13:32:42.149Z,7.48
2023-03-02T13:37:44.313Z,7.38
2023-03-02T13:42:46.077Z,7.51
2023-03-02T13:47:47.867Z,7.49
2023-03-02T13:52:50.599Z,7.33
2023-03-02T13:57:54.199Z,7.37
2023-03-02T14:02:55.874Z,7.19
2023-03-02T14:07:57.490Z,7.44
2023-03-02T14:13:05.501Z,7.38
2023-03-02T14:18:30.210Z,7.37
2023-03-02T14:23:32.158Z,7.28
2023-03-02T14:28:35.973Z,7.12
2023-03-02T14:33:38.035Z,7.19
2023-03-02T14:38:39.736Z,7.45
2023-03-02T14:43:41.479Z,7.40
2023-03-02T14:48:43.253Z,7.31
2023-03-02T14:53:44.942Z,7.20
2023-03-02T14:58:46.761Z,7.36
2023-03-02T15:03:48.413Z,7.12
2023-03-02T15:08:50.054Z,7.27
2023-03-02T15:13:51.902Z,7.24
2023-03-02T15:18:53.974Z,7.16
2023-03-02T15:23:55.775Z,7.13
2023-03-02T15:28:57.562Z,6.93
2023-03-02T15:33:59.423Z,7.11
2023-03-02T15:39:01.072Z,6.93
2023-03-02T15:44:02.772Z,6.97
2023-03-02T15:49:04.456Z,7.06
2023-03-02T15:54:06.659Z,6.87
2023-03-02T15:59:08.276Z,6.91
2023-03-02T16:04:10.429Z,6.91
2023-03-02T16:09:12.578Z,6.90
2023-03-02T16:14:15.609Z,6.57
2023-03-02T16:19:19.281Z,6.32
2023-03-02T16:24:21.265Z,6.18
2023-03-02T16:29:24.252Z,6.26
2023-03-02T16:34:25.883Z,5.96
2023-03-02T16:39:27.558Z,5.93
2023-03-02T16:44:29.265Z,5.91
2023-03-02T16:49:30.942Z,5.61
2023-03-02T16:54:32.574Z,5.03
2023-03-02T16:59:34.277Z,4.70
2023-03-02T17:04:37.243Z,4.65
2023-03-02T17:09:41.819Z,4.10
2023-03-02T17:14:43.549Z,3.99
2023-03-02T17:19:45.191Z,3.58
2023-03-02T17:24:46.835Z,3.51
2023-03-02T17:29:48.479Z,3.35
2023-03-02T17:34:50.535Z,3.53
2023-03-02T17:39:52.678Z,3.31
2023-03-02T17:44:54.430Z,3.17
2023-03-02T17:49:58.329Z,3.09
2023-03-02T17:54:59.939Z,2.58
2023-03-02T18:00:01.937Z,2.80
2023-03-02T18:05:08.244Z,2.64
2023-03-02T18:10:10.780Z,2.45
2023-03-02T18:15:12.950Z,2.26
2023-03-02T18:20:15.036Z,1.91
2023-03-02T18:25:17.063Z,1.87
2023-03-02T18:30:21.223Z,2.18
2023-03-02T18:35:23.943Z,2.24
2023-03-02T18:40:25.976Z,2.13
2023-03-02T18:45:30.511Z,2.02
2023-03-02T18:50:32.528Z,1.59
2023-03-02T18:55:37.147Z,2.06
2023-03-02T19:00:39.267Z,1.76
2023-03-02T19:05:42.393Z,1.92
2023-03-02T19:10:44.175Z,2.02
2023-03-02T19:15:47.220Z,2.06
2023-03-02T19:20:50.797Z,2.10
2023-03-02T19:25:55.571Z,2.03
2023-03-02T19:30:57.739Z,1.95
2023-03-02T19:35:59.900Z,2.23
2023-03-02T19:41:02.121Z,2.26
2023-03-02T19:46:05.267Z,2.03
2023-03-02T19:51:09.094Z,1.80
2023-03-02T19:56:14.310Z,1.70
2023-03-02T20:01:25.092Z,1.46
2023-03-02T20:06:30.513Z,1.80
2023-03-02T20:11:32.377Z,1.74
2023-03-02T20:16:36.015Z,1.33
2023-03-02T20:21:38.451Z,1.19
2023-03-02T20:26:42.166Z,1.13
2023-03-02T20:31:44.637Z,0.97
2023-03-02T20:36:47.110Z,1.13
2023-03-02T20:41:51.709Z,1.32
2023-03-02T20:46:58.137Z,1.03
2023-03-02T20:52:00.281Z,1.07
2023-03-02T20:57:02.062Z,0.60
2023-03-02T21:02:04.601Z,0.55
2023-03-02T21:07:06.698Z,0.29
2023-03-02T21:12:11.841Z,0.52
2023-03-02T21:17:13.594Z,0.41
2023-03-02T21:22:15.297Z,0.01
2023-03-02T21:27:16.946Z,0.13
2023-03-02T21:32:18.954Z,0.34
2023-03-02T21:37:20.702Z,0.15
2023-03-02T21:42:22.640Z,0.31
2023-03-02T21:47:24.350Z,-0.16
2023-03-02T21:52:27.296Z,-0.37
2023-03-02T21:57:28.913Z,-0.43
2023-03-02T22:02:31.271Z,-0.62
2023-03-02T22:07:32.875Z,-0.52
2023-03-02T22:12:34.576Z,-0.07
2023-03-02T22:17:36.273Z,-0.18
2023-03-02T22:22:37.875Z,-0.59
2023-03-02T22:27:39.483Z,-0.64
2023-03-02T22:32:41.153Z,-0.49
2023-03-02T22:37:42.824Z,-0.46
2023-03-02T22:42:44.522Z,-0.59
2023-03-02T22:47:51.265Z,-0.85
2023-03-02T22:52:54.563Z,-0.96
2023-03-02T22:57:56.255Z,-0.57
2023-03-02T23:02:57.876Z,-0.99
2023-03-02T23:08:22.572Z,-0.84
2023-03-02T23:13:30.236Z,-0.80
2023-03-02T23:18:32.892Z,-0.53
2023-03-02T23:23:34.874Z,-0.73
2023-03-02T23:28:36.503Z,-0.52
2023-03-02T23:33:38.143Z,-0.33
2023-03-02T23:38:40.639Z,-0.43
2023-03-02T23:43:42.523Z,-0.79
2023-03-02T23:48:44.410Z,-0.77
2023-03-02T23:53:46.137Z,-0.78
2023-03-02T23:58:48.116Z,-0.59
